createdAt,value
2022-08-05T00:07:59.698Z,3.48
2022-08-05T00:27:36.464Z,4.30
2022-08-05T00:47:56.640Z,4.01
2022-08-05T01:08:29.736Z,2.57
2022-08-05T01:27:50.703Z,2.60
2022-08-05T01:47:54.445Z,2.95
2022-08-05T02:08:01.324Z,2.97
2022-08-05T02:28:08.749Z,2.81
2022-08-05T02:48:12.543Z,3.16
2022-08-05T03:08:16.464Z,3.93
2022-08-05T03:28:21.046Z,3.16
2022-08-05T03:48:26.832Z,3.39
2022-08-05T04:08:36.365Z,5.95
2022-08-05T04:28:38.388Z,3.38
2022-08-05T04:48:43.749Z,3.86
2022-08-05T05:08:50.161Z,4.20
2022-08-05T05:28:54.888Z,4.35
2022-08-05T05:49:00.686Z,5.13
2022-08-05T06:09:07.572Z,3.34
2022-08-05T06:29:25.024Z,5.01
2022-08-05T06:49:17.629Z,3.75
2022-08-05T07:09:24.890Z,5.07
2022-08-05T07:30:22.937Z,3.54
2022-08-05T07:49:35.134Z,3.67
2022-08-05T08:09:40.900Z,3.60
2022-08-05T08:30:05.898Z,5.25
2022-08-05T08:50:06.049Z,5.96
2022-08-05T09:09:58.917Z,6.76
2022-08-05T09:30:06.714Z,6.17
2022-08-05T09:50:10.979Z,4.05
2022-08-05T10:10:17.957Z,4.37
2022-08-05T10:31:20.240Z,2.62
2022-08-05T10:50:35.303Z,3.29
2022-08-05T11:10:34.601Z,2.32
2022-08-05T11:30:41.630Z,2.58
2022-08-05T11:50:46.157Z,3.48
2022-08-05T12:10:52.536Z,2.38
2022-08-05T12:30:57.786Z,6.38
2022-08-05T12:51:03.598Z,3.53
2022-08-05T13:11:09.061Z,3.26
2022-08-05T13:31:14.951Z,2.43
2022-08-05T13:51:21.302Z,3.00
2022-08-05T14:11:27.181Z,2.81
2022-08-05T14:32:02.981Z,2.70
2022-08-05T14:51:38.762Z,2.77
2022-08-05T15:11:51.490Z,4.19
2022-08-05T15:31:52.773Z,3.44
2022-08-05T15:52:03.725Z,3.44
2022-08-05T16:12:00.871Z,3.65
2022-08-05T16:32:09.943Z,4.37
2022-08-05T16:52:12.206Z,3.94
2022-08-05T17:12:17.643Z,3.29
2022-08-05T17:32:23.433Z,3.68
2022-08-05T17:52:30.410Z,3.55
2022-08-05T18:12:36.192Z,2.67
2022-08-05T18:32:42.524Z,3.02
2022-08-05T18:52:50.752Z,4.86
2022-08-05T19:12:54.236Z,4.56
2022-08-05T19:33:00.553Z,8.17
2022-08-05T19:53:10.513Z,10.99
2022-08-05T20:13:12.232Z,11.57
2022-08-05T20:33:18.115Z,9.25
2022-08-05T20:53:36.711Z,2.88
2022-08-05T21:13:47.489Z,3.19
2022-08-05T21:33:37.075Z,2.96
2022-08-05T21:53:41.173Z,3.05
2022-08-05T22:14:33.778Z,3.19
2022-08-05T22:33:57.424Z,3.96
2022-08-05T22:53:58.597Z,5.36
2022-08-05T23:14:04.848Z,4.61
2022-08-05T23:34:11.152Z,4.10
2022-08-05T23:54:16.945Z,3.77
